Time;durP1;ratioP1;P1;durP2;ratioP2;P2;SDS_P1;SDS_P2;PMS_P1;PMS_P2;Temp;Humidity;BMP_temperature;BMP_pressure;BME280_temperature;BME280_humidity;BME280_pressure;Samples;Min_cycle;Max_cycle;Signal;HPM_P1;HPM_P2
2022/09/10 00:00:47;;;;;;;31.90;19.20;;;;;;;15.02;80.03;99689.53;214358;1276;142040;-67
2022/09/10 00:06:08;;;;;;;27.20;17.20;;;;;;;15.00;80.33;99695.16;213181;1274;141195;-66
2022/09/10 00:11:19;;;;;;;31.70;19.60;;;;;;;14.98;80.42;99694.05;213302;1274;142768;-65
2022/09/10 00:16:25;;;;;;;29.80;19.90;;;;;;;14.94;80.70;99689.64;214743;1274;142354;-64
2022/09/10 00:21:29;;;;;;;30.90;18.80;;;;;;;14.92;80.98;99685.71;213971;1275;141191;-64
2022/09/10 00:26:38;;;;;;;27.70;18.90;;;;;;;14.93;81.05;99684.48;213493;1274;140499;-65
2022/09/10 00:31:43;;;;;;;30.20;19.70;;;;;;;14.97;81.13;99684.65;213596;1274;211890;-64
2022/09/10 00:36:48;;;;;;;31.30;18.60;;;;;;;14.99;81.27;99681.30;212832;1274;141656;-65
2022/09/10 00:41:54;;;;;;;27.30;17.80;;;;;;;14.98;81.50;99682.02;213518;1274;141425;-67
2022/09/10 00:46:58;;;;;;;28.50;19.10;;;;;;;14.98;81.47;99673.80;213381;1274;140826;-64
2022/09/10 00:52:04;;;;;;;26.80;19.10;;;;;;;14.99;81.74;99675.30;213287;1274;141475;-64
2022/09/10 00:57:15;;;;;;;32.40;21.10;;;;;;;15.00;81.64;99679.48;214422;1275;142773;-65
2022/09/10 01:02:20;;;;;;;25.20;18.60;;;;;;;15.00;81.71;99673.79;213442;1276;141071;-66
2022/09/10 01:07:28;;;;;;;35.60;22.60;;;;;;;14.99;81.80;99667.79;213674;1276;140374;-67
2022/09/10 01:12:43;;;;;;;;;;;;;;;15.02;81.90;99660.97;213837;1276;140465;-68
2022/09/10 01:18:12;;;;;;;31.00;20.60;;;;;;;14.98;82.05;99656.61;215248;1275;126408;-66
2022/09/10 01:23:41;;;;;;;23.40;16.50;;;;;;;14.96;82.07;99654.86;214546;1274;141113;-66
2022/09/10 01:29:22;;;;;;;24.70;15.20;;;;;;;15.01;82.06;99654.04;215289;1274;141249;-67
2022/09/10 01:34:53;;;;;;;29.90;20.90;;;;;;;15.03;82.02;99650.60;215794;1274;140692;-67
2022/09/10 01:39:59;;;;;;;28.70;17.60;;;;;;;15.02;81.93;99641.48;215455;1274;140856;-67
2022/09/10 01:45:05;;;;;;;27.90;16.80;;;;;;;15.00;81.96;99632.98;215789;1274;140589;-67
2022/09/10 01:50:38;;;;;;;34.30;21.10;;;;;;;14.95;82.07;99640.79;215827;1274;141764;-67
2022/09/10 01:56:02;;;;;;;31.30;20.10;;;;;;;14.95;82.35;99649.27;215616;1274;140999;-67
2022/09/10 02:01:23;;;;;;;34.80;22.90;;;;;;;15.02;82.18;99652.48;214430;1274;140582;-66
2022/09/10 02:06:34;;;;;;;33.20;20.10;;;;;;;15.06;82.22;99652.98;213017;1275;142561;-67
2022/09/10 02:11:57;;;;;;;35.60;20.20;;;;;;;15.06;82.31;99651.31;214097;1275;141060;-66
2022/09/10 02:17:01;;;;;;;38.30;20.40;;;;;;;15.10;82.36;99652.02;213980;1274;141634;-66
2022/09/10 02:22:07;;;;;;;33.30;21.50;;;;;;;15.10;82.46;99645.73;213203;1274;142937;-66
2022/09/10 02:27:13;;;;;;;42.70;22.40;;;;;;;15.11;82.47;99637.31;213826;1274;141150;-65
2022/09/10 02:32:18;;;;;;;36.80;24.10;;;;;;;15.15;82.64;99631.36;213485;1274;142151;-65
2022/09/10 02:37:23;;;;;;;39.50;23.70;;;;;;;15.24;82.69;99623.64;214055;1274;141477;-66
2022/09/10 02:42:27;;;;;;;46.00;24.70;;;;;;;15.32;82.72;99623.05;213287;1274;141217;-69
2022/09/10 02:47:31;;;;;;;40.10;23.80;;;;;;;15.36;82.67;99617.55;213799;1274;141002;-68
2022/09/10 02:52:36;;;;;;;39.70;22.60;;;;;;;15.39;82.56;99620.95;213814;1274;140804;-67
2022/09/10 02:57:41;;;;;;;35.00;20.80;;;;;;;15.29;82.26;99627.39;214708;1274;140894;-67
2022/09/10 03:02:46;;;;;;;48.80;25.50;;;;;;;15.25;82.52;99628.48;214803;1274;141237;-66
2022/09/10 03:07:54;;;;;;;44.00;22.70;;;;;;;15.30;82.46;99631.30;215690;1274;142409;-67
2022/09/10 03:12:59;;;;;;;38.10;23.00;;;;;;;15.26;82.53;99628.91;214483;1274;141010;-67
2022/09/10 03:18:03;;;;;;;40.70;25.80;;;;;;;15.22;82.33;99630.68;215294;1274;210412;-65
2022/09/10 03:23:10;;;;;;;37.80;22.40;;;;;;;15.12;82.49;99632.22;215422;1274;141212;-67
2022/09/10 03:28:15;;;;;;;45.20;24.20;;;;;;;15.07;82.56;99632.73;215059;1274;141409;-65
2022/09/10 03:33:20;;;;;;;36.90;19.20;;;;;;;15.00;82.87;99629.93;215995;1274;142285;-66
2022/09/10 03:38:26;;;;;;;34.00;21.30;;;;;;;14.99;82.84;99626.45;215854;1274;142613;-66
2022/09/10 03:43:30;;;;;;;41.20;21.40;;;;;;;15.02;82.92;99614.90;216047;1274;141545;-66
2022/09/10 03:48:34;;;;;;;44.00;27.10;;;;;;;15.06;82.96;99601.87;216017;1274;140967;-66
2022/09/10 03:53:38;;;;;;;37.60;22.20;;;;;;;15.08;82.98;99589.52;214518;1274;141374;-66
2022/09/10 03:58:42;;;;;;;36.80;20.30;;;;;;;15.07;82.92;99584.15;215237;1274;142598;-66
2022/09/10 04:03:47;;;;;;;44.40;23.30;;;;;;;15.07;82.91;99583.34;214525;1274;142299;-66
2022/09/10 04:08:51;;;;;;;50.50;25.50;;;;;;;15.05;83.16;99588.71;213349;1272;143227;-66
2022/09/10 04:13:56;;;;;;;42.40;23.60;;;;;;;15.05;83.36;99586.14;215121;1274;140485;-66
2022/09/10 04:19:01;;;;;;;41.90;22.60;;;;;;;15.04;83.44;99576.09;213690;1274;142010;-65
2022/09/10 04:24:08;;;;;;;46.60;25.80;;;;;;;15.05;83.52;99575.83;213319;1274;142282;-66
2022/09/10 04:29:15;;;;;;;41.50;22.00;;;;;;;15.07;83.67;99581.63;213827;1274;141391;-66
2022/09/10 04:34:19;;;;;;;41.50;22.00;;;;;;;15.05;83.56;99577.23;213636;1274;140450;-66
2022/09/10 04:39:23;;;;;;;42.50;22.80;;;;;;;15.02;83.54;99577.05;213779;1274;143968;-66
2022/09/10 04:44:28;;;;;;;36.60;19.00;;;;;;;14.96;83.69;99575.95;214305;1274;141302;-66
2022/09/10 04:49:33;;;;;;;44.60;22.90;;;;;;;14.94;83.78;99574.66;213511;1273;141552;-66
2022/09/10 04:54:40;;;;;;;48.70;26.80;;;;;;;14.86;83.81;99576.63;213408;1274;141783;-66
2022/09/10 04:59:45;;;;;;;52.60;26.90;;;;;;;14.81;84.32;99578.65;213691;1274;142352;-66
2022/09/10 05:04:50;;;;;;;47.60;24.00;;;;;;;14.92;84.55;99573.95;214319;1274;140802;-66
2022/09/10 05:09:56;;;;;;;47.00;26.80;;;;;;;14.97;84.19;99564.83;213997;1274;140264;-66
2022/09/10 05:15:05;;;;;;;51.30;25.50;;;;;;;14.91;83.95;99563.59;214851;1274;141434;-68
2022/09/10 05:20:09;;;;;;;46.20;25.80;;;;;;;14.88;84.27;99567.67;215515;1274;141221;-67
2022/09/10 05:25:14;;;;;;;48.10;27.80;;;;;;;14.97;84.35;99564.51;215309;1274;140333;-67
2022/09/10 05:30:19;;;;;;;50.10;26.90;;;;;;;15.02;84.22;99567.71;215846;1274;141359;-66
2022/09/10 05:35:22;;;;;;;56.40;28.50;;;;;;;15.15;84.42;99559.03;215822;1274;141787;-66
2022/09/10 05:40:28;;;;;;;47.80;24.00;;;;;;;15.30;84.31;99562.95;214743;1274;141714;-67
2022/09/10 05:45:33;;;;;;;59.60;27.00;;;;;;;15.39;83.94;99561.75;213839;1274;141268;-67
2022/09/10 05:50:37;;;;;;;43.80;25.60;;;;;;;15.30;83.45;99563.31;213026;1274;141312;-65
2022/09/10 05:55:42;;;;;;;48.00;25.80;;;;;;;15.19;83.38;99560.86;215118;1274;140985;-68
2022/09/10 06:00:50;;;;;;;41.20;24.60;;;;;;;15.08;83.47;99563.59;215094;1274;141225;-66
2022/09/10 06:05:54;;;;;;;58.10;28.40;;;;;;;15.06;83.88;99564.50;214903;1276;141401;-67
2022/09/10 06:11:01;;;;;;;46.80;26.40;;;;;;;15.17;84.07;99568.91;214528;1276;140537;-67
2022/09/10 06:16:07;;;;;;;49.00;24.30;;;;;;;15.24;83.94;99564.78;213824;1276;142261;-66
2022/09/10 06:21:15;;;;;;;46.60;27.70;;;;;;;15.24;83.70;99562.73;213866;1274;141238;-67
2022/09/10 06:26:20;;;;;;;65.40;30.00;;;;;;;15.20;83.70;99568.43;214511;1276;140815;-67
2022/09/10 06:31:24;;;;;;;45.40;26.10;;;;;;;15.21;83.77;99566.45;213946;1275;140840;-66
2022/09/10 06:36:28;;;;;;;55.20;28.80;;;;;;;15.18;83.55;99560.59;214064;1276;140606;-66
2022/09/10 06:41:33;;;;;;;37.30;21.00;;;;;;;15.08;83.60;99563.96;213882;1276;143562;-66
2022/09/10 06:46:37;;;;;;;59.70;27.30;;;;;;;15.05;83.91;99573.57;213565;1274;141861;-66
2022/09/10 06:52:03;;;;;;;32.80;18.50;;;;;;;14.99;83.88;99580.88;213076;1276;142773;-67
2022/09/10 06:57:07;;;;;;;20.70;15.10;;;;;;;14.91;84.06;99585.12;213140;1274;155113;-67
2022/09/10 07:02:11;;;;;;;31.40;17.10;;;;;;;14.88;84.16;99578.50;214153;1274;140718;-66
2022/09/10 07:07:16;;;;;;;22.50;15.40;;;;;;;14.93;84.44;99568.69;214261;1276;142266;-66
2022/09/10 07:12:22;;;;;;;21.40;13.40;;;;;;;15.01;84.56;99560.15;214054;1276;140427;-66
2022/09/10 07:17:27;;;;;;;19.80;13.90;;;;;;;15.15;84.74;99561.93;213818;1274;141409;-65
2022/09/10 07:22:36;;;;;;;19.70;10.90;;;;;;;15.33;84.85;99563.20;214153;1276;140548;-65
2022/09/10 07:27:42;;;;;;;19.40;11.50;;;;;;;15.36;84.15;99585.12;214886;1275;140816;-67
2022/09/10 07:32:48;;;;;;;16.70;12.00;;;;;;;15.13;83.98;99589.73;213485;1274;1473795;-66
2022/09/10 07:37:54;;;;;;;10.20;9.10;;;;;;;15.09;84.52;99587.85;215946;1275;141981;-66
2022/09/10 07:43:01;;;;;;;19.00;12.20;;;;;;;15.06;84.24;99602.02;216020;1274;142019;-68
2022/09/10 07:48:07;;;;;;;11.60;8.00;;;;;;;15.11;84.67;99600.80;214230;1275;141125;-65
2022/09/10 07:53:12;;;;;;;12.40;8.30;;;;;;;15.23;84.70;99590.02;213351;1273;234438;-65
2022/09/10 07:58:16;;;;;;;6.10;5.50;;;;;;;15.36;84.78;99588.50;214218;1275;140454;-66
2022/09/10 08:03:21;;;;;;;8.30;5.70;;;;;;;15.36;84.28;99591.02;214328;1275;141095;-66
2022/09/10 08:08:30;;;;;;;8.10;6.60;;;;;;;15.33;84.18;99585.81;214397;1276;140247;-66
2022/09/10 08:13:36;;;;;;;8.50;7.20;;;;;;;15.41;84.41;99577.54;215229;1274;141222;-67
2022/09/10 08:18:42;;;;;;;6.10;5.00;;;;;;;15.52;84.30;99575.07;214332;1277;140618;-68
2022/09/10 08:23:52;;;;;;;8.20;7.20;;;;;;;15.56;83.94;99574.27;213890;1275;140801;-67
2022/09/10 08:28:57;;;;;;;5.60;5.10;;;;;;;15.56;83.93;99568.69;213846;1275;140455;-65
2022/09/10 08:34:03;;;;;;;9.20;5.40;;;;;;;15.55;84.00;99569.86;213224;1275;140962;-64
2022/09/10 08:39:07;;;;;;;7.90;5.40;;;;;;;15.63;84.20;99572.27;213514;1277;140409;-65
2022/09/10 08:44:35;;;;;;;5.60;5.10;;;;;;;15.61;83.94;99569.70;213492;1274;141012;-66
2022/09/10 08:49:46;;;;;;;6.50;5.40;;;;;;;15.58;83.86;99571.75;213474;1275;141150;-67
2022/09/10 08:55:15;;;;;;;9.10;5.60;;;;;;;15.48;83.83;99584.52;213267;1274;140743;-65
2022/09/10 09:00:32;;;;;;;5.80;5.30;;;;;;;15.37;83.98;99589.63;214826;1274;140528;-66
2022/09/10 09:05:52;;;;;;;5.20;4.40;;;;;;;15.29;84.01;99588.83;214770;1275;141739;-68
2022/09/10 09:11:09;;;;;;;4.90;4.50;;;;;;;15.27;84.14;99588.47;214313;1276;140085;-66
2022/09/10 09:16:45;;;;;;;6.80;4.90;;;;;;;15.31;84.25;99576.79;214435;1274;234258;-67
2022/09/10 09:21:52;;;;;;;4.70;3.50;;;;;;;15.37;84.52;99575.61;214098;1276;141185;-67
2022/09/10 09:27:08;;;;;;;;;;;;;;;15.49;84.38;99577.11;213593;1276;141677;-66
2022/09/10 09:32:16;;;;;;;4.90;4.30;;;;;;;15.58;84.54;99566.10;215831;1275;127349;-68
2022/09/10 09:37:29;;;;;;;5.70;4.60;;;;;;;15.66;84.17;99564.04;215830;1276;141345;-66
2022/09/10 09:43:45;;;;;;;4.80;4.30;;;;;;;15.83;84.22;99560.80;213338;1314;684040;-66
2022/09/10 09:48:52;;;;;;;6.70;5.80;;;;;;;16.08;84.35;99554.95;213111;1288;143305;-69
2022/09/10 09:53:59;;;;;;;6.60;5.60;;;;;;;16.39;84.37;99551.15;210982;1286;1455107;-64
2022/09/10 09:59:26;;;;;;;;;;;;;;;16.69;84.06;99541.30;211856;1286;139903;-65
2022/09/10 10:04:33;;;;;;;5.10;4.70;;;;;;;16.88;83.49;99538.96;211644;1286;127111;-64
2022/09/10 10:09:43;;;;;;;5.90;4.00;;;;;;;16.95;83.23;99538.48;211403;1286;139583;-66
2022/09/10 10:14:45;;;;;;;5.50;5.00;;;;;;;17.01;83.22;99533.33;211884;1285;141646;-66
2022/09/10 10:20:07;;;;;;;5.90;4.90;;;;;;;16.99;82.71;99534.85;212237;1286;138957;-64
2022/09/10 10:25:32;;;;;;;7.40;4.80;;;;;;;16.97;82.70;99532.60;212333;1286;140482;-65
2022/09/10 10:30:40;;;;;;;9.50;6.10;;;;;;;16.96;82.43;99529.96;211634;1285;139726;-66
2022/09/10 10:35:58;;;;;;;4.70;4.30;;;;;;;16.87;81.89;99528.41;211079;1286;140255;-65
2022/09/10 10:41:08;;;;;;;5.50;5.10;;;;;;;16.75;81.76;99532.39;212172;1285;139595;-65
2022/09/10 10:46:21;;;;;;;6.60;4.60;;;;;;;16.66;81.92;99529.05;211468;1286;140076;-65
2022/09/10 10:51:50;;;;;;;7.90;5.00;;;;;;;16.69;82.08;99529.36;214365;1277;139500;-66
2022/09/10 10:57:27;;;;;;;5.30;4.60;;;;;;;16.72;82.32;99526.81;212824;1277;140023;-65
2022/09/10 11:02:44;;;;;;;4.00;3.70;;;;;;;16.74;82.27;99527.66;213638;1278;140456;-66
2022/09/10 11:07:47;;;;;;;5.60;4.30;;;;;;;16.71;81.97;99522.46;214025;1277;140114;-65
2022/09/10 11:13:05;;;;;;;7.40;4.00;;;;;;;16.56;81.75;99520.69;214097;1277;139942;-65
2022/09/10 11:18:19;;;;;;;5.40;4.60;;;;;;;16.56;82.21;99523.39;215311;1278;140782;-65
2022/09/10 11:23:45;;;;;;;4.90;4.40;;;;;;;16.72;82.52;99520.57;214422;1277;139904;-65
2022/09/10 11:29:24;;;;;;;4.50;4.00;;;;;;;16.95;82.39;99516.41;215582;1277;139722;-65
2022/09/10 11:34:51;;;;;;;12.00;6.50;;;;;;;17.09;82.08;99515.48;214361;1277;142843;-66
2022/09/10 11:39:58;;;;;;;5.90;5.10;;;;;;;17.07;81.57;99513.79;215511;1277;139720;-66
2022/09/10 11:45:22;;;;;;;7.10;6.40;;;;;;;17.07;81.44;99513.30;215433;1277;139882;-65
2022/09/10 11:50:35;;;;;;;6.50;5.80;;;;;;;17.05;81.46;99508.73;214366;1277;140043;-65
2022/09/10 11:55:49;;;;;;;5.70;5.10;;;;;;;17.03;81.53;99500.30;214243;1277;139834;-65
2022/09/10 12:01:01;;;;;;;6.90;6.10;;;;;;;16.98;81.45;99493.82;213845;1277;141069;-65
2022/09/10 12:06:16;;;;;;;7.40;5.60;;;;;;;16.94;81.62;99495.25;214036;1277;140284;-65
2022/09/10 12:11:43;;;;;;;6.10;5.60;;;;;;;16.87;81.52;99492.34;213744;1277;140388;-65
2022/09/10 12:17:02;;;;;;;7.60;6.80;;;;;;;16.80;81.56;99490.47;213506;1277;141501;-65
2022/09/10 12:22:15;;;;;;;7.10;6.50;;;;;;;16.82;81.63;99488.29;212908;1277;140560;-66
2022/09/10 12:27:19;;;;;;;6.50;5.80;;;;;;;16.86;81.55;99488.69;213789;1277;142044;-66
2022/09/10 12:32:27;;;;;;;6.40;5.70;;;;;;;16.89;81.64;99487.00;213070;1278;140892;-65
2022/09/10 12:37:29;;;;;;;6.10;5.50;;;;;;;16.94;82.02;99482.91;214162;1277;140888;-65
2022/09/10 12:42:33;;;;;;;5.60;5.00;;;;;;;16.95;81.87;99483.50;213829;1277;140261;-65
2022/09/10 12:47:45;;;;;;;7.20;6.10;;;;;;;16.98;82.09;99483.05;213095;1277;142122;-65
2022/09/10 12:52:51;;;;;;;4.30;3.90;;;;;;;16.97;82.07;99477.98;213349;1277;141555;-65
2022/09/10 12:58:28;;;;;;;9.50;4.70;;;;;;;16.98;82.18;99474.48;213040;1277;140617;-65
2022/09/10 13:03:31;;;;;;;4.00;3.70;;;;;;;17.04;82.11;99473.14;214123;1277;140574;-65
2022/09/10 13:08:42;;;;;;;2.60;2.40;;;;;;;17.09;82.18;99469.33;213814;1277;140492;-66
2022/09/10 13:13:54;;;;;;;2.20;1.80;;;;;;;17.09;81.96;99472.40;213360;1277;140480;-65
2022/09/10 13:19:13;;;;;;;3.00;2.70;;;;;;;17.10;82.06;99465.02;213845;1277;141172;-66
2022/09/10 13:24:36;;;;;;;2.60;2.10;;;;;;;17.10;81.95;99459.79;214919;1277;141437;-66
2022/09/10 13:29:43;;;;;;;2.40;2.20;;;;;;;17.16;81.80;99456.91;213986;1277;140847;-65
2022/09/10 13:35:04;;;;;;;3.00;2.10;;;;;;;17.24;81.73;99446.70;213027;1277;229846;-67
2022/09/10 13:40:26;;;;;;;2.90;1.70;;;;;;;17.31;81.78;99442.65;213034;1277;141392;-66
2022/09/10 13:45:40;;;;;;;1.70;1.60;;;;;;;17.39;81.64;99439.77;214489;1275;140828;-69
2022/09/10 13:50:59;;;;;;;3.40;3.20;;;;;;;17.39;81.63;99439.39;213328;1277;140683;-67
2022/09/10 13:56:16;;;;;;;4.70;2.50;;;;;;;17.39;81.56;99440.85;213944;1277;140167;-67
2022/09/10 14:01:40;;;;;;;2.50;2.30;;;;;;;17.43;81.60;99437.82;214538;1277;139849;-68
2022/09/10 14:06:49;;;;;;;6.90;1.90;;;;;;;17.42;81.19;99431.48;213270;1277;139504;-68
2022/09/10 14:11:55;;;;;;;2.20;2.10;;;;;;;17.46;81.32;99424.05;214236;1277;139678;-67
2022/09/10 14:17:30;;;;;;;1.20;1.20;;;;;;;17.54;81.35;99418.19;214372;1277;142511;-67
2022/09/10 14:22:38;;;;;;;2.80;1.60;;;;;;;17.61;81.06;99412.17;212517;1277;141480;-66
2022/09/10 14:27:42;;;;;;;2.20;2.10;;;;;;;17.65;80.98;99412.20;214641;1277;141599;-67
2022/09/10 14:32:47;;;;;;;2.50;2.40;;;;;;;17.64;80.68;99410.86;213188;1277;140387;-67
2022/09/10 14:37:51;;;;;;;2.90;2.60;;;;;;;17.67;80.88;99405.87;214575;1277;139587;-69
2022/09/10 14:43:14;;;;;;;1.70;1.60;;;;;;;17.68;80.63;99405.02;213787;1277;138873;-67
2022/09/10 14:49:00;;;;;;;3.90;1.90;;;;;;;17.66;80.30;99404.15;213576;1277;140342;-67
2022/09/10 14:54:02;;;;;;;2.10;2.00;;;;;;;17.64;80.28;99406.11;214112;1277;140378;-67
2022/09/10 14:59:29;;;;;;;2.60;2.50;;;;;;;17.67;80.32;99407.39;213136;1277;144520;-68
2022/09/10 15:04:31;;;;;;;4.10;2.60;;;;;;;17.65;79.92;99404.45;213922;1277;140356;-67
2022/09/10 15:09:34;;;;;;;3.70;3.50;;;;;;;17.67;80.19;99403.89;213615;1279;140035;-67
2022/09/10 15:14:36;;;;;;;3.90;3.60;;;;;;;17.64;80.08;99403.85;214526;1277;140221;-68
2022/09/10 15:19:40;;;;;;;5.60;5.00;;;;;;;17.61;80.00;99406.84;215535;1277;140041;-68
2022/09/10 15:24:43;;;;;;;7.20;6.60;;;;;;;17.59;79.83;99404.33;215646;1277;139767;-67
2022/09/10 15:30:06;;;;;;;9.50;8.70;;;;;;;17.55;79.49;99403.94;215612;1277;139814;-67
2022/09/10 15:35:09;;;;;;;9.10;8.10;;;;;;;17.51;79.56;99402.15;214308;1279;141708;-68
2022/09/10 15:40:12;;;;;;;8.40;7.50;;;;;;;17.47;79.38;99407.02;215768;1277;139627;-68
2022/09/10 15:45:18;;;;;;;10.40;9.40;;;;;;;17.34;79.15;99405.92;215472;1277;140573;-68
2022/09/10 15:50:22;;;;;;;14.30;9.90;;;;;;;17.28;79.33;99407.98;213843;1277;140781;-67
2022/09/10 15:55:26;;;;;;;10.60;9.40;;;;;;;17.26;79.42;99410.11;213351;1277;140848;-67
2022/09/10 16:00:29;;;;;;;11.00;9.50;;;;;;;17.24;79.45;99410.77;213485;1275;140959;-67
2022/09/10 16:05:34;;;;;;;12.30;10.40;;;;;;;17.16;79.51;99417.69;214689;1276;139653;-67
2022/09/10 16:10:39;;;;;;;11.40;10.20;;;;;;;17.06;79.55;99419.05;213741;1274;139300;-67
2022/09/10 16:15:43;;;;;;;16.60;12.50;;;;;;;16.99;79.56;99424.02;213222;1276;142891;-67
2022/09/10 16:20:46;;;;;;;20.90;13.50;;;;;;;16.93;79.59;99425.73;214024;1276;142275;-67
2022/09/10 16:25:54;;;;;;;16.40;14.70;;;;;;;16.79;79.49;99423.13;213681;1275;141095;-68
2022/09/10 16:30:58;;;;;;;19.70;16.60;;;;;;;16.65;79.53;99428.14;213977;1276;140319;-68
2022/09/10 16:36:05;;;;;;;25.60;14.30;;;;;;;16.56;79.77;99425.38;214860;1274;140632;-68
2022/09/10 16:41:11;;;;;;;20.30;14.40;;;;;;;16.50;79.94;99425.16;213819;1276;141936;-67
2022/09/10 16:46:16;;;;;;;20.30;16.10;;;;;;;16.51;80.15;99426.02;213226;1275;231578;-67
2022/09/10 16:51:22;;;;;;;19.50;15.00;;;;;;;16.45;80.17;99419.30;213948;1275;139883;-68
2022/09/10 16:56:25;;;;;;;23.10;16.10;;;;;;;16.40;80.29;99413.41;213554;1276;140678;-67
2022/09/10 17:01:29;;;;;;;25.00;16.80;;;;;;;16.33;80.23;99413.50;213495;1277;140236;-68
2022/09/10 17:06:34;;;;;;;21.60;16.50;;;;;;;16.28;80.15;99409.55;213419;1276;141683;-67
2022/09/10 17:11:37;;;;;;;26.20;17.30;;;;;;;16.15;80.00;99413.05;213519;1276;229419;-67
2022/09/10 17:16:43;;;;;;;29.90;18.90;;;;;;;16.00;80.21;99416.67;214726;1275;140681;-68
2022/09/10 17:21:50;;;;;;;30.40;19.20;;;;;;;15.89;80.33;99424.70;215640;1275;140141;-67
2022/09/10 17:26:54;;;;;;;33.60;18.60;;;;;;;15.81;80.47;99428.67;214794;1276;140620;-67
2022/09/10 17:31:57;;;;;;;22.80;17.30;;;;;;;15.77;80.65;99430.94;215919;1276;141762;-68
2022/09/10 17:37:01;;;;;;;26.80;17.00;;;;;;;15.73;80.68;99437.35;214208;1276;140635;-67
2022/09/10 17:42:04;;;;;;;25.10;15.80;;;;;;;15.75;80.79;99440.36;214504;1276;140217;-67
2022/09/10 17:47:08;;;;;;;27.70;18.60;;;;;;;15.74;80.72;99436.92;214803;1274;141331;-67
2022/09/10 17:52:13;;;;;;;24.90;17.00;;;;;;;15.71;80.83;99433.39;215072;1274;140095;-68
2022/09/10 17:57:18;;;;;;;22.80;16.50;;;;;;;15.69;80.94;99431.30;214354;1274;139899;-68
2022/09/10 18:02:22;;;;;;;25.70;16.90;;;;;;;15.68;81.03;99429.31;214679;1276;140321;-68
2022/09/10 18:07:27;;;;;;;24.80;16.60;;;;;;;15.65;81.16;99429.27;213164;1275;139574;-67
2022/09/10 18:12:30;;;;;;;29.70;18.60;;;;;;;15.63;81.25;99423.73;214875;1275;140519;-67
2022/09/10 18:17:33;;;;;;;24.70;17.60;;;;;;;15.60;81.12;99425.25;213265;1274;140520;-68
2022/09/10 18:22:37;;;;;;;22.60;15.90;;;;;;;15.54;81.16;99427.58;213780;1274;140152;-67
2022/09/10 18:27:42;;;;;;;25.00;17.80;;;;;;;15.50;81.25;99427.33;213309;1274;141600;-67
2022/09/10 18:32:46;;;;;;;22.80;17.40;;;;;;;15.46;81.34;99430.18;213344;1274;140158;-67
2022/09/10 18:37:51;;;;;;;28.60;19.10;;;;;;;15.42;81.39;99433.57;213531;1274;140831;-67
2022/09/10 18:42:54;;;;;;;26.40;18.50;;;;;;;15.40;81.37;99436.42;214986;1274;141789;-67
2022/09/10 18:47:57;;;;;;;35.20;18.70;;;;;;;15.38;81.37;99441.48;213855;1274;139796;-67
2022/09/10 18:53:00;;;;;;;26.80;19.20;;;;;;;15.30;81.32;99444.63;214970;1274;141325;-69
2022/09/10 18:58:02;;;;;;;34.50;20.30;;;;;;;15.24;81.38;99447.02;214355;1274;140285;-67
2022/09/10 19:03:06;;;;;;;32.80;21.90;;;;;;;15.19;81.33;99448.68;215254;1274;141964;-67
2022/09/10 19:08:10;;;;;;;34.40;19.00;;;;;;;15.15;81.40;99449.86;214567;1275;141904;-67
2022/09/10 19:13:14;;;;;;;33.10;21.50;;;;;;;15.16;81.44;99441.77;215549;1276;142191;-67
2022/09/10 19:18:18;;;;;;;31.60;20.30;;;;;;;15.15;81.48;99435.09;215727;1276;141875;-68
2022/09/10 19:23:24;;;;;;;28.50;19.40;;;;;;;15.15;81.72;99432.36;215775;1276;141350;-67
2022/09/10 19:28:33;;;;;;;33.80;21.00;;;;;;;15.20;81.62;99431.92;215161;1275;142026;-67
2022/09/10 19:33:41;;;;;;;35.10;21.10;;;;;;;15.18;81.45;99435.10;215658;1274;141442;-69
2022/09/10 19:38:48;;;;;;;29.60;20.10;;;;;;;15.17;81.56;99433.00;215833;1276;140640;-66
2022/09/10 19:43:52;;;;;;;;;;;;;;;15.16;81.60;99428.60;214703;1274;248405;-69
2022/09/10 19:48:58;;;;;;;35.40;18.70;;;;;;;15.13;81.56;99425.43;213532;1276;126491;-69
2022/09/10 19:54:02;;;;;;;33.00;20.60;;;;;;;15.08;81.49;99423.73;214790;1274;143629;-67
2022/09/10 19:59:09;;;;;;;32.60;20.90;;;;;;;15.05;81.66;99419.43;213014;1276;141231;-68
2022/09/10 20:04:14;;;;;;;40.40;23.70;;;;;;;15.03;81.84;99420.71;214115;1276;140538;-68
2022/09/10 20:09:18;;;;;;;32.50;19.30;;;;;;;15.04;81.95;99422.27;214002;1276;140263;-68
2022/09/10 20:14:21;;;;;;;37.70;20.00;;;;;;;15.06;81.95;99422.38;212902;1276;141164;-69
2022/09/10 20:19:28;;;;;;;33.30;20.10;;;;;;;15.06;82.09;99421.91;214546;1276;139426;-67
2022/09/10 20:24:36;;;;;;;32.60;21.60;;;;;;;15.00;81.98;99419.29;213038;1276;139501;-66
2022/09/10 20:29:38;;;;;;;32.20;19.60;;;;;;;14.95;82.06;99417.54;212916;1276;140475;-66
2022/09/10 20:34:42;;;;;;;35.40;21.20;;;;;;;14.94;82.06;99416.25;213552;1276;141816;-66
2022/09/10 20:39:47;;;;;;;27.20;20.00;;;;;;;14.93;82.19;99415.23;213926;1275;141596;-66
2022/09/10 20:44:50;;;;;;;33.10;19.90;;;;;;;14.90;82.28;99414.85;214040;1275;139873;-67
2022/09/10 20:49:53;;;;;;;31.20;16.50;;;;;;;14.88;82.09;99412.17;213574;1274;140714;-66
2022/09/10 20:54:55;;;;;;;27.00;17.70;;;;;;;14.83;82.09;99412.77;212974;1275;140025;-68
2022/09/10 20:59:58;;;;;;;26.50;16.90;;;;;;;14.79;82.29;99412.17;215652;1274;139714;-68
2022/09/10 21:05:01;;;;;;;31.00;18.30;;;;;;;14.76;82.17;99407.61;215248;1276;140025;-68
2022/09/10 21:10:04;;;;;;;26.80;15.80;;;;;;;14.76;82.12;99407.35;215262;1274;140323;-66
2022/09/10 21:15:07;;;;;;;28.00;16.00;;;;;;;14.75;82.13;99403.69;215964;1275;141003;-68
2022/09/10 21:20:11;;;;;;;33.50;18.40;;;;;;;14.79;82.17;99397.15;216054;1275;141565;-70
2022/09/10 21:25:14;;;;;;;28.40;16.10;;;;;;;14.81;82.32;99393.48;215847;1276;141086;-68
2022/09/10 21:30:17;;;;;;;24.10;16.20;;;;;;;14.86;82.27;99394.02;215017;1275;141991;-67
2022/09/10 21:35:21;;;;;;;27.30;17.20;;;;;;;14.87;82.33;99392.25;214251;1274;140671;-66
2022/09/10 21:40:24;;;;;;;32.00;18.10;;;;;;;14.86;82.26;99397.09;214564;1274;141315;-66
2022/09/10 21:45:27;;;;;;;31.20;18.40;;;;;;;14.82;82.14;99396.98;214135;1274;141896;-68
2022/09/10 21:50:30;;;;;;;29.40;18.00;;;;;;;14.81;82.25;99399.98;213172;1276;142273;-66
2022/09/10 21:55:33;;;;;;;31.50;20.70;;;;;;;14.80;82.24;99401.55;212429;1276;1930985;-67
2022/09/10 22:00:39;;;;;;;28.10;18.80;;;;;;;14.79;82.32;99405.25;213507;1276;141191;-66
2022/09/10 22:05:42;;;;;;;31.50;18.00;;;;;;;14.75;82.28;99402.46;213990;1274;140456;-66
2022/09/10 22:10:46;;;;;;;28.40;16.30;;;;;;;14.74;82.34;99396.83;213623;1276;139610;-64
2022/09/10 22:15:50;;;;;;;26.50;16.90;;;;;;;14.71;82.45;99400.31;213587;1275;139180;-67
2022/09/10 22:21:00;;;;;;;30.30;18.70;;;;;;;14.68;82.38;99395.17;213445;1275;139668;-66
2022/09/10 22:26:24;;;;;;;30.40;17.10;;;;;;;14.65;82.36;99398.73;213914;1276;142016;-68
2022/09/10 22:31:33;;;;;;;25.70;15.00;;;;;;;14.65;82.57;99402.01;213276;1275;140394;-70
2022/09/10 22:36:39;;;;;;;30.10;18.00;;;;;;;14.64;82.51;99402.55;214138;1276;140520;-66
2022/09/10 22:41:42;;;;;;;21.20;15.70;;;;;;;14.62;82.51;99396.31;214373;1276;140923;-68
2022/09/10 22:46:46;;;;;;;25.60;17.60;;;;;;;14.61;82.54;99387.79;214087;1274;141098;-68
2022/09/10 22:51:50;;;;;;;21.00;13.60;;;;;;;14.58;82.57;99391.86;214281;1275;140089;-68
2022/09/10 22:56:53;;;;;;;26.20;15.50;;;;;;;14.56;82.68;99388.97;214131;1276;141590;-68
2022/09/10 23:01:56;;;;;;;29.60;16.70;;;;;;;14.56;82.73;99387.03;213446;1274;141077;-69
2022/09/10 23:06:59;;;;;;;26.20;17.80;;;;;;;14.55;82.54;99389.55;213703;1276;163476;-70
2022/09/10 23:12:02;;;;;;;27.30;15.80;;;;;;;14.54;82.71;99388.32;214831;1274;142373;-68
2022/09/10 23:17:05;;;;;;;26.50;16.70;;;;;;;14.56;82.78;99388.11;215569;1276;141189;-67